EST,Max TemperatureF,Mean TemperatureF,Min TemperatureF,Max Dew PointF,MeanDew PointF,Min DewpointF,Max Humidity, Mean Humidity, Min Humidity, Max Sea Level PressureIn, Mean Sea Level PressureIn, Min Sea Level PressureIn, Max VisibilityMiles, Mean VisibilityMiles, Min VisibilityMiles, Max Wind SpeedMPH, Mean Wind SpeedMPH, Max Gust SpeedMPH,PrecipitationIn, CloudCover, Events, WindDirDegrees
2011-11-1,80,74,68,68,64,59,93,77,61,30.15,30.07,30.02,10,10,9,22,14,29,0.00,7,,8
2011-11-2,79,75,71,64,61,57,73,61,48,30.19,30.14,30.11,10,10,10,17,11,23,0.04,2,Rain,51
2011-11-3,80,72,63,67,62,58,93,71,48,30.12,30.06,29.98,10,10,8,17,4,23,0.01,5,Rain,71
2011-11-4,80,69,58,65,58,47,93,69,45,29.97,29.90,29.81,10,10,10,22,10,30,0.00,2,,266
2011-11-5,77,66,55,66,59,48,90,75,60,30.05,30.00,29.93,10,9,2,22,12,31,0.05,5,Rain,349
2011-11-6,80,75,70,67,62,57,84,71,57,30.15,30.10,30.03,10,10,9,23,11,30,T,5,,47
2011-11-7,80,74,68,66,63,58,79,68,57,30.17,30.12,30.09,10,9,3,22,9,28,0.17,6,Rain,49
2011-11-8,80,74,67,64,62,58,93,69,45,30.09,30.05,30.01,10,10,10,18,8,24,T,3,,34
2011-11-9,79,72,65,65,63,61,87,75,62,30.03,29.97,29.93,10,10,10,21,10,28,0.00,2,,345
2011-11-10,80,71,62,63,59,55,93,68,42,29.96,29.91,29.86,10,10,7,14,6,17,0.00,2,,312
2011-11-11,70,62,54,60,51,38,86,70,53,30.19,30.09,29.95,10,10,9,22,12,29,0.00,2,,332
2011-11-12,76,64,52,55,53,50,96,71,46,30.27,30.23,30.18,10,10,10,17,7,21,0.00,2,,65
2011-11-13,79,71,63,63,59,55,87,69,50,30.24,30.19,30.15,10,10,10,16,6,21,0.00,3,,97
2011-11-14,82,72,62,72,68,59,93,81,69,30.17,30.11,30.07,10,10,2,14,6,18,0.02,5,Rain,106
2011-11-15,85,78,70,74,72,69,100,87,74,30.08,30.05,30.01,10,8,0,20,8,23,0.25,5,Fog-Rain,148
2011-11-16,85,79,73,72,71,70,93,79,65,30.08,30.03,29.98,10,10,8,16,8,21,0.00,2,,165
2011-11-17,86,77,68,72,68,64,93,72,51,30.09,30.03,29.96,10,10,8,20,7,25,0.00,3,,295
2011-11-18,76,73,70,64,62,57,84,71,57,30.22,30.17,30.09,10,10,7,22,15,30,T,8,Rain,51
2011-11-19,82,78,73,67,65,62,79,67,55,30.25,30.21,30.17,10,10,10,18,12,24,0.00,5,,81
2011-11-20,82,78,74,70,68,66,82,76,69,30.26,30.22,30.19,10,10,10,18,11,24,0.00,5,,69
2011-11-21,82,77,72,73,70,68,93,81,69,30.25,30.19,30.14,10,10,10,17,7,20,0.40,7,Rain,89
2011-11-22,81,73,64,70,67,62,97,78,58,30.20,30.15,30.12,10,10,10,12,5,21,0.02,4,Rain,131
2011-11-23,84,74,63,69,65,61,93,72,51,30.13,30.07,29.99,10,10,10,15,6,20,0.00,1,,257
2011-11-24,79,72,64,65,57,52,93,71,48,30.24,30.15,30.05,10,10,2,21,10,28,0.00,3,,26
2011-11-25,78,74,70,61,55,50,64,54,43,30.25,30.20,30.17,10,10,10,20,12,25,T,5,Rain,80
2011-11-26,79,75,71,63,59,55,73,60,47,30.23,30.18,30.14,10,10,10,20,13,28,0.03,6,Rain,98
2011-11-27,80,77,73,64,59,54,73,58,43,30.14,30.07,30.00,10,10,10,18,13,25,T,5,,121
2011-11-28,82,73,64,69,65,59,90,74,58,29.99,29.94,29.87,10,10,10,21,11,25,0.34,5,,177
2011-11-29,73,63,53,59,54,46,90,67,44,30.04,29.98,29.95,10,10,10,17,6,22,T,4,Rain,281
2011-11-30,72,61,50,55,51,46,89,71,53,30.08,30.02,29.97,10,10,10,13,5,15,0.00,1,,298